OOMS/MCT METAR and TAF weather

Enter ICAO airport designator
Station Type Date Time Source
OOMS METAR 2021/05/11 22:50 UTC NOAA

OOMS 112250Z 22004KT 190V250 CAVOK 28/21 Q1003 NOSIG


Station Type Date Time Source
OOMS Decoded METAR 2021/05/11 22:50 UTC NOAA

Seeb, International Airport, Oman (OOMS) 23-35N 058-17E 17M
May 11, 2021 - 06:50 PM EDT / 2021.05.11 2250 UTC
Wind: from the SW (220 degrees) at 5 MPH (4 KT) (direction variable):0
Visibility: greater than 7 mile(s):0
Temperature: 82 F (28 C)
Dew Point: 69 F (21 C)
Relative Humidity: 65%
Pressure (altimeter): 29.62 in. Hg (1003 hPa)
ob: OOMS 112250Z 22004KT 190V250 CAVOK 28/21 Q1003 NOSIG
cycle: 23

Station Type Date Time Source
OOMS TAF 2021/05/11 18:18 UTC NOAA

TAF TAF OOMS 111700Z 1118/1224 25005KT 8000 NSC
BECMG 1206/1208 03010KT
BECMG 1216/1218 21014KT

Example: see airport list